Aqviq — VOLT — position and weather

sailwx.info

Track history (hours):
 
Tides and Currents Weather Stations Pressure Air Temp Water Temp Dewpoint Dewpoint Depression Visibility Wind Speed Wind Dir Waves Ship Positions

Aqviq

Last reported at 2018-Jul-16 04:23 UTC. Time now 2018-Aug-21 03:58 UTC.
Position N 47°45' W 053°05'.
Warning: this ship's position is 35 days out of date.

Length 48 m; draft 6 m.

Type: Fishing. MMSI: 316004000.

Date/timePositionNaut miles runAvg speedWind from/ knotsBaromVisibWave heightAir tempDewpointWater temp
2018-Jul-16 04:23N 47°45' W 053°05'  
2018-Jul-07 01:39N 47°21' W 052°24'3 9.6
2018-Jul-07 01:18N 47°24' W 052°26'3 9.3
2018-Jul-07 00:58N 47°26' W 052°29'5 9.1
2018-Jul-07 00:23N 47°31' W 052°33'4 9.8
2018-Jul-06 23:58N 47°34' W 052°38'3 5.6
2018-Jul-06 23:28N 47°34' W 052°42'0 0.0
2018-Jul-06 23:00N 47°34' W 052°42'0 0.0
2018-Jul-06 22:17N 47°34' W 052°42'0 0.0
2018-Jul-06 22:00N 47°34' W 052°42'0 0.0
2018-Jul-06 21:26N 47°34' W 052°42'0 0.0
2018-Jul-06 20:53N 47°34' W 052°42'0 0.0
2018-Jul-06 20:29N 47°34' W 052°42'0 0.0
2018-Jul-06 20:00N 47°34' W 052°42'0 0.0
2018-Jul-06 19:28N 47°34' W 052°42'0 0.0
2018-Jul-06 19:00N 47°34' W 052°42'0 0.0
2018-Jul-06 18:29N 47°34' W 052°42'0 0.0
2018-Jul-06 18:00N 47°34' W 052°42'0 0.0
2018-Jul-06 16:46N 47°34' W 052°42'0 0.0
2018-Jul-06 16:27N 47°34' W 052°42'0 0.0
2018-Jul-06 15:57N 47°34' W 052°42'0 0.0
2018-Jul-06 15:30N 47°34' W 052°42'0 0.0
2018-Jul-06 14:57N 47°34' W 052°42'0 0.0
2018-Jul-06 14:26N 47°34' W 052°42'0 0.0
2018-Jul-06 14:00N 47°34' W 052°42'0 0.0
2018-Jul-06 13:29N 47°34' W 052°42'0 0.0
2018-Jul-06 12:58N 47°34' W 052°42'0 0.0
2018-Jul-06 12:28N 47°34' W 052°42'0 0.0
2018-Jul-06 11:58N 47°34' W 052°42'0 0.0
2018-Jul-06 11:30N 47°34' W 052°42'0 0.0
2018-Jul-06 10:59N 47°34' W 052°42'0 0.0
2018-Jul-06 10:28N 47°34' W 052°42'2 2.5
2018-Jul-06 09:51N 47°34' W 052°39'3 7.5
2018-Jul-06 09:30N 47°34' W 052°36'1 2.7
2018-Jul-06 09:00N 47°34' W 052°34'1 2.5
2018-Jul-06 08:29N 47°34' W 052°36'2 3.3
2018-Jul-06 07:57N 47°34' W 052°38'3 6.0
2018-Jul-06 07:27N 47°33' W 052°34'3 6.0
2018-Jul-06 06:59N 47°33' W 052°30'  
Track history (hours):
 
Tides and Currents Weather Stations Pressure Air Temp Water Temp Dewpoint Dewpoint Depression Visibility Wind Speed Wind Dir Waves Ship Positions

Aqviq

Last reported at 2018-Jul-16 04:23 UTC. Time now 2018-Aug-21 03:58 UTC.
Position N 47°45' W 053°05'.
Warning: this ship's position is 35 days out of date.

Length 48 m; draft 6 m.

Type: Fishing. MMSI: 316004000.

Date/timePositionNaut miles runAvg speedWind from/ knotsBaromVisibWave heightAir tempDewpointWater temp
2018-Jul-16 04:23N 47°45' W 053°05'  
2018-Jul-07 01:39N 47°21' W 052°24'3 9.6
2018-Jul-07 01:18N 47°24' W 052°26'3 9.3
2018-Jul-07 00:58N 47°26' W 052°29'5 9.1
2018-Jul-07 00:23N 47°31' W 052°33'4 9.8
2018-Jul-06 23:58N 47°34' W 052°38'3 5.6
2018-Jul-06 23:28N 47°34' W 052°42'0 0.0
2018-Jul-06 23:00N 47°34' W 052°42'0 0.0
2018-Jul-06 22:17N 47°34' W 052°42'0 0.0
2018-Jul-06 22:00N 47°34' W 052°42'0 0.0
2018-Jul-06 21:26N 47°34' W 052°42'0 0.0
2018-Jul-06 20:53N 47°34' W 052°42'0 0.0
2018-Jul-06 20:29N 47°34' W 052°42'0 0.0
2018-Jul-06 20:00N 47°34' W 052°42'0 0.0
2018-Jul-06 19:28N 47°34' W 052°42'0 0.0
2018-Jul-06 19:00N 47°34' W 052°42'0 0.0
2018-Jul-06 18:29N 47°34' W 052°42'0 0.0
2018-Jul-06 18:00N 47°34' W 052°42'0 0.0
2018-Jul-06 16:46N 47°34' W 052°42'0 0.0
2018-Jul-06 16:27N 47°34' W 052°42'0 0.0
2018-Jul-06 15:57N 47°34' W 052°42'0 0.0
2018-Jul-06 15:30N 47°34' W 052°42'0 0.0
2018-Jul-06 14:57N 47°34' W 052°42'0 0.0
2018-Jul-06 14:26N 47°34' W 052°42'0 0.0
2018-Jul-06 14:00N 47°34' W 052°42'0 0.0
2018-Jul-06 13:29N 47°34' W 052°42'0 0.0
2018-Jul-06 12:58N 47°34' W 052°42'0 0.0
2018-Jul-06 12:28N 47°34' W 052°42'0 0.0
2018-Jul-06 11:58N 47°34' W 052°42'0 0.0
2018-Jul-06 11:30N 47°34' W 052°42'0 0.0
2018-Jul-06 10:59N 47°34' W 052°42'0 0.0
2018-Jul-06 10:28N 47°34' W 052°42'2 2.5
2018-Jul-06 09:51N 47°34' W 052°39'3 7.5
2018-Jul-06 09:30N 47°34' W 052°36'1 2.7
2018-Jul-06 09:00N 47°34' W 052°34'1 2.5
2018-Jul-06 08:29N 47°34' W 052°36'2 3.3
2018-Jul-06 07:57N 47°34' W 052°38'3 6.0
2018-Jul-06 07:27N 47°33' W 052°34'3 6.0
2018-Jul-06 06:59N 47°33' W 052°30'  

Dump ship's entire track history